createdAt,value
2022-10-19T00:02:21.020Z,102347.28
2022-10-19T00:05:06.486Z,102346.66
2022-10-19T00:07:51.486Z,102345.09
2022-10-19T00:10:40.809Z,102346.28
2022-10-19T00:13:26.009Z,102336.28
2022-10-19T00:16:14.416Z,102336.22
2022-10-19T00:19:01.628Z,102322.41
2022-10-19T00:21:47.069Z,102323.31
2022-10-19T00:24:32.099Z,102314.59
2022-10-19T00:27:17.330Z,102310.28
2022-10-19T00:30:02.802Z,102306.72
2022-10-19T00:32:48.088Z,102304.09
2022-10-19T00:35:32.950Z,102298.84
2022-10-19T00:38:19.782Z,102295.53
2022-10-19T00:41:04.613Z,102298.22
2022-10-19T00:44:04.025Z,102276.09
2022-10-19T00:46:49.029Z,102288.69
2022-10-19T00:49:37.993Z,102277.34
2022-10-19T00:52:25.504Z,102278.13
2022-10-19T00:55:11.415Z,102275.56
2022-10-19T00:57:57.111Z,102249.00
2022-10-19T01:00:42.512Z,102262.59
2022-10-19T01:03:27.838Z,102275.56
2022-10-19T01:06:16.871Z,102270.56
2022-10-19T01:09:01.855Z,102270.00
2022-10-19T01:11:54.971Z,102278.81
2022-10-19T01:15:10.940Z,102270.06
2022-10-19T01:18:09.210Z,102274.47
2022-10-19T01:21:03.507Z,102271.84
2022-10-19T01:24:12.405Z,102262.66
2022-10-19T01:27:15.627Z,102272.63
2022-10-19T01:30:12.306Z,102259.56
2022-10-19T01:33:00.566Z,102259.56
2022-10-19T01:36:10.293Z,102253.41
2022-10-19T01:39:38.060Z,102252.56
2022-10-19T01:42:32.723Z,102258.66
2022-10-19T01:45:36.100Z,102256.94
2022-10-19T01:48:32.090Z,102255.09
2022-10-19T01:51:21.779Z,102256.88
2022-10-19T01:54:12.413Z,102261.19
2022-10-19T01:57:01.770Z,102255.09
2022-10-19T01:59:48.564Z,102249.00
2022-10-19T02:02:42.077Z,102229.94
2022-10-19T02:05:32.172Z,102229.94
2022-10-19T02:08:20.345Z,102235.41
2022-10-19T02:11:06.199Z,102242.44
2022-10-19T02:13:59.057Z,102226.94
2022-10-19T02:17:02.452Z,102237.25
2022-10-19T02:19:47.348Z,102208.19
2022-10-19T02:22:33.322Z,102217.53
2022-10-19T02:25:18.767Z,102212.91
2022-10-19T02:28:04.678Z,102205.84
2022-10-19T02:30:50.381Z,102195.47
2022-10-19T02:33:36.594Z,102187.84
2022-10-19T02:36:22.038Z,102177.41
2022-10-19T02:39:08.744Z,102186.75
2022-10-19T02:42:15.992Z,102176.25
2022-10-19T02:45:09.409Z,102173.47
2022-10-19T02:47:58.335Z,102144.22
2022-10-19T02:50:49.754Z,102160.50
2022-10-19T02:53:34.703Z,102150.84
2022-10-19T02:56:20.034Z,102145.59
2022-10-19T02:59:04.997Z,102117.34
2022-10-19T03:01:50.649Z,102120.81
2022-10-19T03:04:36.045Z,102127.22
2022-10-19T03:07:21.767Z,102130.78
2022-10-19T03:10:07.025Z,102126.47
2022-10-19T03:12:51.879Z,102126.38
2022-10-19T03:15:37.173Z,102132.63
2022-10-19T03:18:22.361Z,102136.19
2022-10-19T03:21:09.942Z,102129.16
2022-10-19T03:23:55.284Z,102100.34
2022-10-19T03:26:40.364Z,102126.47
2022-10-19T03:29:25.569Z,102122.13
2022-10-19T03:32:10.639Z,102126.63
2022-10-19T03:34:55.881Z,102117.81
2022-10-19T03:37:40.974Z,102108.47
2022-10-19T03:40:25.802Z,102114.56
2022-10-19T03:43:10.793Z,102111.00
2022-10-19T03:45:55.646Z,102112.88
2022-10-19T03:48:41.016Z,102096.94
2022-10-19T03:51:28.181Z,102123.44
2022-10-19T03:54:15.189Z,102112.72
2022-10-19T03:57:00.291Z,102110.16
2022-10-19T03:59:45.115Z,102117.97
2022-10-19T04:02:30.333Z,102112.72
2022-10-19T04:05:15.703Z,102102.22
2022-10-19T04:08:00.842Z,102117.13
2022-10-19T04:10:45.954Z,102116.41
2022-10-19T04:13:31.773Z,102116.41
2022-10-19T04:16:17.858Z,102108.53
2022-10-19T04:19:02.831Z,102101.66
2022-10-19T04:21:49.474Z,102098.97
2022-10-19T04:24:34.474Z,102098.97
2022-10-19T04:27:19.453Z,102095.41
2022-10-19T04:30:05.258Z,102093.78
2022-10-19T04:32:50.533Z,102089.31
2022-10-19T04:35:35.514Z,102079.94
2022-10-19T04:38:20.372Z,102080.00
2022-10-19T04:41:14.552Z,102079.94
2022-10-19T04:44:02.078Z,102077.38
2022-10-19T04:46:47.045Z,102071.19
2022-10-19T04:49:31.911Z,102073.97
2022-10-19T04:52:16.803Z,102075.53
2022-10-19T04:55:02.025Z,102062.56
2022-10-19T04:57:47.175Z,102055.59
2022-10-19T05:00:32.190Z,102048.50
2022-10-19T05:03:17.445Z,102044.25
2022-10-19T05:06:02.555Z,102053.75
2022-10-19T05:08:49.166Z,102050.97
2022-10-19T05:11:34.195Z,102047.41
2022-10-19T05:14:19.800Z,102038.69
2022-10-19T05:17:04.719Z,102042.94
2022-10-19T05:19:50.017Z,102048.19
2022-10-19T05:22:34.806Z,102034.16
2022-10-19T05:25:19.814Z,102024.66
2022-10-19T05:28:04.994Z,102029.66
2022-10-19T05:30:49.918Z,102020.88
2022-10-19T05:33:35.332Z,102033.66
2022-10-19T05:36:21.863Z,102009.44
2022-10-19T05:39:13.802Z,102024.38
2022-10-19T05:41:58.712Z,102024.22
2022-10-19T05:44:44.019Z,102008.41
2022-10-19T05:47:31.005Z,102010.03
2022-10-19T05:50:16.301Z,101998.41
2022-10-19T05:53:01.648Z,102003.50
2022-10-19T05:55:47.003Z,101994.53
2022-10-19T05:58:32.847Z,101983.34
2022-10-19T06:01:19.725Z,102000.22
2022-10-19T06:04:07.024Z,101995.75
2022-10-19T06:06:52.311Z,102005.31
2022-10-19T06:09:37.477Z,102001.91
2022-10-19T06:12:24.942Z,102006.25
2022-10-19T06:15:10.541Z,102010.50
2022-10-19T06:17:55.817Z,102013.97
2022-10-19T06:20:42.051Z,101989.19
2022-10-19T06:23:27.008Z,101993.88
2022-10-19T06:26:14.343Z,101968.28
2022-10-19T06:29:01.284Z,101985.25
2022-10-19T06:31:47.727Z,101960.41
2022-10-19T06:34:32.709Z,101970.75
2022-10-19T06:37:18.017Z,101973.53
2022-10-19T06:40:07.040Z,101972.75
2022-10-19T06:42:54.536Z,101972.75
2022-10-19T06:45:39.798Z,101974.44
2022-10-19T06:48:25.049Z,101966.66
2022-10-19T06:51:10.481Z,101957.53
2022-10-19T06:53:57.179Z,101968.28
2022-10-19T06:56:42.463Z,101971.50
2022-10-19T06:59:27.374Z,101967.94
2022-10-19T07:02:12.617Z,101973.97
2022-10-19T07:04:57.905Z,101980.91
2022-10-19T07:07:43.049Z,101962.09
2022-10-19T07:10:28.173Z,101980.50
2022-10-19T07:13:13.978Z,101975.00
2022-10-19T07:16:01.241Z,101983.50
2022-10-19T07:18:46.939Z,101968.53
2022-10-19T07:21:32.239Z,101965.72
2022-10-19T07:24:17.706Z,101972.41
2022-10-19T07:27:03.834Z,101961.97
2022-10-19T07:29:48.885Z,101980.00
2022-10-19T07:32:34.287Z,101943.94
2022-10-19T07:35:19.356Z,101938.50
2022-10-19T07:38:04.433Z,101962.97
2022-10-19T07:40:49.339Z,101961.13
2022-10-19T07:43:34.881Z,101954.00
2022-10-19T07:46:26.229Z,101949.41
2022-10-19T07:49:16.290Z,101946.53
2022-10-19T07:52:01.088Z,101936.69
2022-10-19T07:54:49.376Z,101926.84
2022-10-19T07:57:34.438Z,101914.56
2022-10-19T08:00:19.635Z,101921.25
2022-10-19T08:03:43.750Z,101922.75
2022-10-19T08:06:12.206Z,101922.22
2022-10-19T08:08:57.229Z,101915.38
2022-10-19T08:11:42.548Z,101925.16
2022-10-19T08:14:27.925Z,101927.91
2022-10-19T08:17:16.670Z,101919.63
2022-10-19T08:20:02.992Z,101915.81
2022-10-19T08:22:48.252Z,101911.97
2022-10-19T08:25:33.496Z,101907.81
2022-10-19T08:28:18.597Z,101927.38
2022-10-19T08:31:18.215Z,101923.63
2022-10-19T08:34:03.914Z,101915.56
2022-10-19T08:36:49.014Z,101921.28
2022-10-19T08:39:34.001Z,101905.50
2022-10-19T08:42:25.380Z,101920.06
2022-10-19T08:45:26.923Z,101907.38
2022-10-19T08:48:36.576Z,101906.25
2022-10-19T08:51:21.541Z,101898.94
2022-10-19T08:54:13.599Z,101904.84
2022-10-19T08:57:15.546Z,101905.53
2022-10-19T09:00:17.112Z,101879.47
2022-10-19T09:03:32.121Z,101875.97
2022-10-19T09:06:57.030Z,101878.41
2022-10-19T09:12:47.245Z,101871.94
2022-10-19T09:15:52.959Z,101882.41
2022-10-19T09:18:44.274Z,101886.44
2022-10-19T09:21:48.463Z,101879.94
2022-10-19T09:24:46.820Z,101874.44
2022-10-19T09:27:39.412Z,101876.88
2022-10-19T09:30:24.700Z,101868.91
2022-10-19T09:33:20.134Z,101865.22
2022-10-19T09:36:07.545Z,101857.22
2022-10-19T09:38:52.649Z,101864.59
2022-10-19T09:41:48.075Z,101841.75
2022-10-19T09:44:33.474Z,101860.75
2022-10-19T09:47:41.355Z,101858.06
2022-10-19T09:50:29.330Z,101842.22
2022-10-19T09:53:21.066Z,101855.41
2022-10-19T09:56:08.212Z,101831.25
2022-10-19T09:58:57.220Z,101844.97
2022-10-19T10:01:43.845Z,101852.59
2022-10-19T10:04:30.290Z,101846.50
2022-10-19T10:07:18.782Z,101848.59
2022-10-19T10:10:19.305Z,101855.56
2022-10-19T10:13:05.238Z,101854.28
2022-10-19T10:15:56.871Z,101843.81
2022-10-19T10:18:57.255Z,101835.63
2022-10-19T10:21:49.868Z,101831.16
2022-10-19T10:24:34.868Z,101819.16
2022-10-19T10:27:35.812Z,101830.28
2022-10-19T10:30:21.068Z,101825.28
2022-10-19T10:33:15.932Z,101828.44
2022-10-19T10:36:11.899Z,101820.59
2022-10-19T10:39:07.313Z,101785.72
2022-10-19T10:41:53.726Z,101802.16
2022-10-19T10:44:54.209Z,101790.13
2022-10-19T10:47:39.473Z,101808.19
2022-10-19T10:50:30.789Z,101797.41
2022-10-19T10:53:31.928Z,101785.59
2022-10-19T10:56:27.456Z,101796.31
2022-10-19T10:59:19.763Z,101797.44
2022-10-19T11:02:23.565Z,101800.44
2022-10-19T11:05:19.281Z,101788.91
2022-10-19T11:08:35.857Z,101780.41
2022-10-19T11:11:25.667Z,101778.81
2022-10-19T11:14:37.389Z,101781.56
2022-10-19T11:17:27.522Z,101764.50
2022-10-19T11:20:16.824Z,101755.25
2022-10-19T11:23:10.897Z,101752.75
2022-10-19T11:26:35.047Z,101757.66
2022-10-19T11:29:32.419Z,101756.22
2022-10-19T11:32:32.942Z,101729.59
2022-10-19T11:35:37.334Z,101729.84
2022-10-19T11:38:51.650Z,101725.75
2022-10-19T11:42:35.454Z,101722.16
2022-10-19T11:45:31.006Z,101717.84
2022-10-19T11:48:52.961Z,101715.06
2022-10-19T11:51:51.886Z,101708.94
2022-10-19T11:55:29.937Z,101690.25
2022-10-19T11:58:35.282Z,101694.69
2022-10-19T12:01:47.855Z,101688.25
2022-10-19T12:04:56.103Z,101681.81
2022-10-19T12:07:51.947Z,101662.03
2022-10-19T12:10:43.252Z,101640.81
2022-10-19T12:13:50.650Z,101632.31
2022-10-19T12:16:40.053Z,101641.97
2022-10-19T12:19:29.674Z,101626.75
2022-10-19T12:22:19.345Z,101595.31
2022-10-19T12:25:04.766Z,101616.97
2022-10-19T12:27:50.957Z,101597.69
2022-10-19T12:30:35.843Z,101560.56
2022-10-19T12:33:21.244Z,101581.06
2022-10-19T12:36:32.942Z,101587.03
2022-10-19T12:39:30.930Z,101575.41
2022-10-19T12:42:15.881Z,101572.91
2022-10-19T12:45:16.856Z,101552.25
2022-10-19T12:48:07.872Z,101569.00
2022-10-19T12:50:53.836Z,101557.38
2022-10-19T12:53:40.701Z,101555.16
2022-10-19T12:56:26.794Z,101558.09
2022-10-19T12:59:25.715Z,101542.72
2022-10-19T13:02:29.214Z,101539.94
2022-10-19T13:05:26.080Z,101526.09
2022-10-19T13:08:27.292Z,101514.22
2022-10-19T13:11:16.907Z,101505.47
2022-10-19T13:14:10.964Z,101502.22
2022-10-19T13:17:01.248Z,101508.63
2022-10-19T13:19:46.432Z,101502.19
2022-10-19T13:22:31.695Z,101502.63
2022-10-19T13:25:17.108Z,101484.34
2022-10-19T13:28:28.092Z,101474.38
2022-10-19T13:31:25.879Z,101479.69
2022-10-19T13:34:15.400Z,101477.03
2022-10-19T13:37:03.382Z,101463.91
2022-10-19T13:39:49.699Z,101461.97
2022-10-19T13:42:35.277Z,101427.28
2022-10-19T13:45:23.027Z,101462.22
2022-10-19T13:48:21.562Z,101436.22
2022-10-19T13:51:20.013Z,101403.69
2022-10-19T13:54:17.708Z,101425.44
2022-10-19T13:57:32.043Z,101415.94
2022-10-19T14:00:22.516Z,101405.03
2022-10-19T14:03:10.814Z,101379.66
2022-10-19T14:06:22.312Z,101394.47
2022-10-19T14:09:28.337Z,101390.09
2022-10-19T14:12:23.702Z,101386.25
2022-10-19T14:15:24.365Z,101380.91
2022-10-19T14:18:31.498Z,101365.78
2022-10-19T14:21:32.882Z,101363.19
2022-10-19T14:24:33.657Z,101344.34
2022-10-19T14:27:23.874Z,101343.34
2022-10-19T14:30:35.804Z,101339.06
2022-10-19T14:33:20.653Z,101364.59
2022-10-19T14:36:07.969Z,101360.69
2022-10-19T14:38:55.885Z,101359.97
2022-10-19T14:41:41.087Z,101351.97
2022-10-19T14:44:32.304Z,101356.19
2022-10-19T14:47:23.518Z,101357.56
2022-10-19T14:50:11.744Z,101352.78
2022-10-19T14:53:20.901Z,101355.28
2022-10-19T14:56:18.768Z,101341.06
2022-10-19T14:59:23.042Z,101368.00
2022-10-19T15:02:25.807Z,101360.16
2022-10-19T15:05:26.751Z,101326.81
2022-10-19T15:08:23.195Z,101333.66
2022-10-19T15:11:20.892Z,101322.63
2022-10-19T15:14:21.838Z,101319.38
2022-10-19T15:17:23.743Z,101337.34
2022-10-19T15:20:24.091Z,101334.09
2022-10-19T15:23:41.557Z,101330.13
2022-10-19T15:26:26.295Z,101332.66
2022-10-19T15:29:27.882Z,101317.16
2022-10-19T15:32:15.832Z,101293.75
2022-10-19T15:35:11.952Z,101297.63
2022-10-19T15:38:03.346Z,101269.72
2022-10-19T15:40:49.346Z,101286.72
2022-10-19T15:43:43.316Z,101280.53
2022-10-19T15:46:31.510Z,101297.41
2022-10-19T15:49:16.888Z,101298.88
2022-10-19T15:52:20.564Z,101283.53
2022-10-19T15:55:05.985Z,101256.75
2022-10-19T15:57:59.005Z,101270.94
2022-10-19T16:00:44.168Z,101251.38
2022-10-19T16:03:28.993Z,101271.69
2022-10-19T16:06:15.233Z,101269.81
2022-10-19T16:09:01.091Z,101266.72
2022-10-19T16:11:46.522Z,101265.44
2022-10-19T16:14:34.381Z,101240.88
2022-10-19T16:17:22.283Z,101241.41
2022-10-19T16:20:10.662Z,101244.44
2022-10-19T16:22:56.593Z,101232.84
2022-10-19T16:25:41.677Z,101222.91
2022-10-19T16:28:26.852Z,101228.66
2022-10-19T16:31:12.145Z,101219.38
2022-10-19T16:33:57.579Z,101238.44
2022-10-19T16:36:42.774Z,101237.97
2022-10-19T16:39:28.522Z,101236.78
2022-10-19T16:42:13.657Z,101227.31
2022-10-19T16:44:58.814Z,101221.97
2022-10-19T16:47:45.252Z,101195.41
2022-10-19T16:50:30.368Z,101212.41
2022-10-19T16:53:15.338Z,101213.47
2022-10-19T16:56:09.806Z,101213.63
2022-10-19T16:59:01.247Z,101205.97
2022-10-19T17:01:46.520Z,101194.47
2022-10-19T17:04:31.530Z,101184.72
2022-10-19T17:07:16.762Z,101184.38
2022-10-19T17:10:01.967Z,101177.94
2022-10-19T17:12:46.780Z,101175.56
2022-10-19T17:15:42.632Z,101165.84
2022-10-19T17:18:28.633Z,101172.19
2022-10-19T17:21:25.404Z,101183.94
2022-10-19T17:24:22.057Z,101181.81
2022-10-19T17:27:08.012Z,101174.63
2022-10-19T17:29:53.191Z,101173.19
2022-10-19T17:32:38.183Z,101166.47
2022-10-19T17:35:23.540Z,101173.44
2022-10-19T17:38:08.501Z,101172.22
2022-10-19T17:40:53.418Z,101179.19
2022-10-19T17:43:40.620Z,101161.78
2022-10-19T17:46:28.945Z,101175.38
2022-10-19T17:49:14.407Z,101157.13
2022-10-19T17:51:59.283Z,101164.41
2022-10-19T17:54:54.571Z,101160.34
2022-10-19T17:57:49.386Z,101160.47
2022-10-19T18:00:34.357Z,101145.84
2022-10-19T18:03:19.573Z,101116.25
2022-10-19T18:06:15.971Z,101148.50
2022-10-19T18:09:06.007Z,101132.19
2022-10-19T18:11:51.430Z,101151.38
2022-10-19T18:14:36.365Z,101139.63
2022-10-19T18:17:24.127Z,101153.88
2022-10-19T18:20:12.007Z,101141.75
2022-10-19T18:22:57.101Z,101151.25
2022-10-19T18:25:54.022Z,101153.16
2022-10-19T18:28:40.249Z,101162.84
2022-10-19T18:31:29.291Z,101164.41
2022-10-19T18:34:15.950Z,101169.09
2022-10-19T18:37:01.158Z,101155.53
2022-10-19T18:39:46.507Z,101155.09
2022-10-19T18:42:31.293Z,101156.75
2022-10-19T18:45:16.171Z,101147.03
2022-10-19T18:48:01.064Z,101137.81
2022-10-19T18:50:46.137Z,101134.34
2022-10-19T18:53:32.072Z,101130.16
2022-10-19T18:56:20.114Z,101116.50
2022-10-19T18:59:05.760Z,101126.19
2022-10-19T19:01:50.784Z,101116.00
2022-10-19T19:04:36.954Z,101141.63
2022-10-19T19:07:21.939Z,101138.56
2022-10-19T19:10:07.330Z,101139.38
2022-10-19T19:12:55.378Z,101133.88
2022-10-19T19:15:40.581Z,101132.06
2022-10-19T19:18:26.266Z,101138.16
2022-10-19T19:21:17.315Z,101128.50
2022-10-19T19:24:06.287Z,101132.69
2022-10-19T19:26:54.871Z,101116.13
2022-10-19T19:29:39.734Z,101072.19
2022-10-19T19:32:25.010Z,101079.34
2022-10-19T19:35:10.250Z,101075.16
2022-10-19T19:37:55.354Z,101067.25
2022-10-19T19:40:42.392Z,101057.91
2022-10-19T19:43:30.929Z,101064.72
2022-10-19T19:46:19.061Z,101092.03
2022-10-19T19:49:05.207Z,101085.44
2022-10-19T19:51:51.963Z,101096.72
2022-10-19T19:54:36.922Z,101085.44
2022-10-19T19:57:22.592Z,101084.72
2022-10-19T20:00:09.765Z,101120.69
2022-10-19T20:02:56.605Z,101137.47
2022-10-19T20:05:42.133Z,101114.69
2022-10-19T20:08:27.080Z,101131.47
2022-10-19T20:11:14.569Z,101104.28
2022-10-19T20:13:59.901Z,101077.91
2022-10-19T20:16:44.984Z,101051.31
2022-10-19T20:19:30.410Z,101049.88
2022-10-19T20:22:15.319Z,101057.78
2022-10-19T20:25:00.227Z,101045.47
2022-10-19T20:27:45.512Z,101045.47
2022-10-19T20:30:31.019Z,101041.03
2022-10-19T20:33:15.974Z,101056.94
2022-10-19T20:36:23.912Z,101051.19
2022-10-19T20:39:09.532Z,101067.97
2022-10-19T20:41:55.186Z,101067.97
2022-10-19T20:44:40.302Z,101065.22
2022-10-19T20:47:25.438Z,101054.53
2022-10-19T20:50:10.762Z,101052.03
2022-10-19T20:52:55.726Z,101030.47
2022-10-19T20:55:40.788Z,101037.06
2022-10-19T20:58:25.901Z,101023.66
2022-10-19T21:01:16.514Z,101044.97
2022-10-19T21:04:04.671Z,101017.91
2022-10-19T21:06:51.241Z,101038.97
2022-10-19T21:09:36.291Z,101037.41
2022-10-19T21:12:21.638Z,101015.13
2022-10-19T21:15:07.073Z,101031.06
2022-10-19T21:17:51.883Z,101022.19
2022-10-19T21:20:36.821Z,101003.03
2022-10-19T21:23:22.023Z,100978.63
2022-10-19T21:26:07.181Z,100998.00
2022-10-19T21:28:55.036Z,101000.50
2022-10-19T21:31:45.227Z,101008.41
2022-10-19T21:34:33.558Z,100980.75
2022-10-19T21:37:18.461Z,100981.22
2022-10-19T21:40:03.526Z,100990.78
2022-10-19T21:42:48.776Z,100982.41
2022-10-19T21:45:37.490Z,100985.06
2022-10-19T21:48:23.621Z,100988.31
2022-10-19T21:51:36.262Z,100983.88
2022-10-19T21:54:29.135Z,100978.59
2022-10-19T21:57:14.210Z,100983.03
2022-10-19T21:59:59.190Z,100983.63
2022-10-19T22:02:44.021Z,100981.94
2022-10-19T22:05:29.312Z,100971.03
2022-10-19T22:08:14.398Z,100978.22
2022-10-19T22:11:12.366Z,100976.69
2022-10-19T22:14:00.037Z,100985.78
2022-10-19T22:16:45.442Z,100972.34
2022-10-19T22:19:30.845Z,100978.59
2022-10-19T22:22:16.096Z,100978.13
2022-10-19T22:25:01.376Z,100978.00
2022-10-19T22:27:46.185Z,100958.47
2022-10-19T22:30:31.177Z,100971.88
2022-10-19T22:33:16.225Z,100972.84
2022-10-19T22:36:03.220Z,100968.66
2022-10-19T22:38:48.601Z,100971.03
2022-10-19T22:41:33.796Z,100968.56
2022-10-19T22:44:18.658Z,100943.88
2022-10-19T22:47:03.612Z,100933.47
2022-10-19T22:49:48.915Z,100937.16
2022-10-19T22:52:34.352Z,100917.66
2022-10-19T22:55:19.485Z,100935.47
2022-10-19T22:58:05.926Z,100935.97
2022-10-19T23:01:08.573Z,100920.91
2022-10-19T23:03:54.638Z,100904.16
2022-10-19T23:06:40.722Z,100927.03
2022-10-19T23:09:25.661Z,100933.84
2022-10-19T23:12:10.838Z,100924.88
2022-10-19T23:14:55.806Z,100919.50
2022-10-19T23:17:40.736Z,100915.16
2022-10-19T23:20:25.942Z,100920.44
2022-10-19T23:23:11.146Z,100911.09
2022-10-19T23:26:05.172Z,100910.13
2022-10-19T23:28:50.855Z,100882.41
2022-10-19T23:31:35.879Z,100881.44
2022-10-19T23:34:21.094Z,100887.91
2022-10-19T23:37:06.256Z,100873.78
2022-10-19T23:39:51.356Z,100884.41
2022-10-19T23:42:36.373Z,100849.00
2022-10-19T23:45:21.217Z,100852.84
2022-10-19T23:48:06.354Z,100846.00
2022-10-19T23:51:04.268Z,100867.78
2022-10-19T23:53:51.181Z,100866.09
2022-10-19T23:56:36.475Z,100854.59
2022-10-19T23:59:21.583Z,100850.06
